Time;durP1;ratioP1;P1;durP2;ratioP2;P2;SDS_P1;SDS_P2;PMS_P1;PMS_P2;Temp;Humidity;BMP_temperature;BMP_pressure;BME280_temperature;BME280_humidity;BME280_pressure;Samples;Min_cycle;Max_cycle;Signal;HPM_P1;HPM_P2
2024/02/02 00:00:38;;;;;;;22.80;9.70;;;;;;;-128.00;-1.00;-1.00;102952;1254;1004889;-78
2024/02/02 00:03:24;;;;;;;16.10;4.80;;;;;;;-128.00;-1.00;-1.00;102965;1254;1046497;-80
2024/02/02 00:05:51;;;;;;;13.10;4.50;;;;;;;-128.00;-1.00;-1.00;102959;1253;1005239;-79
2024/02/02 00:08:18;;;;;;;9.40;3.20;;;;;;;-128.00;-1.00;-1.00;102949;1254;1005372;-79
2024/02/02 00:10:44;;;;;;;21.00;6.90;;;;;;;-128.00;-1.00;-1.00;103972;1252;1004611;-81
2024/02/02 00:13:10;;;;;;;9.70;3.00;;;;;;;-128.00;-1.00;-1.00;105664;1253;1004930;-80
2024/02/02 00:15:37;;;;;;;17.60;4.90;;;;;;;-128.00;-1.00;-1.00;105150;1254;1003673;-80
2024/02/02 00:18:03;;;;;;;17.80;5.30;;;;;;;-128.00;-1.00;-1.00;103078;1253;1004252;-80
2024/02/02 00:20:30;;;;;;;16.70;5.60;;;;;;;-128.00;-1.00;-1.00;104584;1253;1004819;-80
2024/02/02 00:23:00;;;;;;;14.10;4.50;;;;;;;-128.00;-1.00;-1.00;105691;1253;1003896;-80
2024/02/02 00:25:26;;;;;;;12.70;2.70;;;;;;;-128.00;-1.00;-1.00;105686;1253;1046137;-79
2024/02/02 00:27:53;;;;;;;12.10;3.80;;;;;;;-128.00;-1.00;-1.00;105724;1253;1004396;-80
2024/02/02 00:30:20;;;;;;;10.60;3.70;;;;;;;-128.00;-1.00;-1.00;105437;1252;1003830;-79
2024/02/02 00:32:47;;;;;;;11.40;4.00;;;;;;;-128.00;-1.00;-1.00;102976;1254;1004638;-80
2024/02/02 00:35:13;;;;;;;6.80;3.80;;;;;;;-128.00;-1.00;-1.00;103431;1253;1005336;-80
2024/02/02 00:37:40;;;;;;;13.70;4.40;;;;;;;-128.00;-1.00;-1.00;105126;1253;1004061;-79
2024/02/02 00:40:08;;;;;;;14.30;4.40;;;;;;;-128.00;-1.00;-1.00;103062;1253;1004033;-81
2024/02/02 00:42:36;;;;;;;17.00;7.30;;;;;;;-128.00;-1.00;-1.00;103067;1254;1004138;-80
2024/02/02 00:45:03;;;;;;;12.50;4.40;;;;;;;-128.00;-1.00;-1.00;103004;1254;1004777;-79
2024/02/02 00:47:29;;;;;;;13.20;4.50;;;;;;;-128.00;-1.00;-1.00;103010;1256;1003784;-81
2024/02/02 00:49:56;;;;;;;12.40;3.20;;;;;;;-128.00;-1.00;-1.00;103128;1253;1003942;-80
2024/02/02 00:52:24;;;;;;;13.50;5.00;;;;;;;-128.00;-1.00;-1.00;103062;1253;1005516;-80
2024/02/02 00:54:50;;;;;;;17.50;4.60;;;;;;;-128.00;-1.00;-1.00;102936;1257;1004172;-78
2024/02/02 00:57:17;;;;;;;33.60;9.80;;;;;;;-128.00;-1.00;-1.00;102937;1253;1004454;-79
2024/02/02 00:59:43;;;;;;;15.00;4.80;;;;;;;-128.00;-1.00;-1.00;102937;1256;1004071;-80
2024/02/02 01:02:10;;;;;;;19.90;5.20;;;;;;;-128.00;-1.00;-1.00;102918;1255;1003985;-79
2024/02/02 01:04:37;;;;;;;15.30;4.60;;;;;;;-128.00;-1.00;-1.00;102931;1253;1004835;-78
2024/02/02 01:07:03;;;;;;;14.40;5.50;;;;;;;-128.00;-1.00;-1.00;105510;1252;1005148;-80
2024/02/02 01:09:30;;;;;;;16.20;4.40;;;;;;;-128.00;-1.00;-1.00;105675;1253;1004944;-80
2024/02/02 01:11:58;;;;;;;12.50;4.30;;;;;;;-128.00;-1.00;-1.00;103630;1253;1003898;-79
2024/02/02 01:14:25;;;;;;;17.80;5.50;;;;;;;-128.00;-1.00;-1.00;102918;1253;1004402;-81
2024/02/02 01:16:51;;;;;;;9.40;3.90;;;;;;;-128.00;-1.00;-1.00;105314;1253;1003974;-79
2024/02/02 01:19:18;;;;;;;6.80;3.30;;;;;;;-128.00;-1.00;-1.00;105624;1253;1004482;-80
2024/02/02 01:21:45;;;;;;;12.00;4.50;;;;;;;-128.00;-1.00;-1.00;105717;1253;1004576;-79
2024/02/02 01:24:12;;;;;;;10.40;3.70;;;;;;;-128.00;-1.00;-1.00;105730;1252;1004162;-81
2024/02/02 01:26:38;;;;;;;19.60;4.50;;;;;;;-128.00;-1.00;-1.00;105746;1253;1004489;-81
2024/02/02 01:29:07;;;;;;;8.00;3.40;;;;;;;-128.00;-1.00;-1.00;105360;1252;1004637;-79
2024/02/02 01:31:34;;;;;;;9.20;4.10;;;;;;;-128.00;-1.00;-1.00;103037;1253;1061419;-79
2024/02/02 01:34:01;;;;;;;8.80;3.40;;;;;;;-128.00;-1.00;-1.00;104155;1253;1004854;-81
2024/02/02 01:36:27;;;;;;;10.00;4.20;;;;;;;-128.00;-1.00;-1.00;103177;1254;1004839;-79
2024/02/02 01:38:54;;;;;;;15.20;3.30;;;;;;;-128.00;-1.00;-1.00;102948;1256;1004747;-79
2024/02/02 01:41:20;;;;;;;32.10;4.20;;;;;;;-128.00;-1.00;-1.00;103145;1253;1005589;-80
2024/02/02 01:43:47;;;;;;;13.60;4.00;;;;;;;-128.00;-1.00;-1.00;103068;1253;1005002;-78
2024/02/02 01:46:14;;;;;;;14.20;4.30;;;;;;;-128.00;-1.00;-1.00;103138;1253;1005011;-79
2024/02/02 01:48:41;;;;;;;13.40;3.90;;;;;;;-128.00;-1.00;-1.00;103001;1257;1003713;-80
2024/02/02 01:51:07;;;;;;;8.00;2.70;;;;;;;-128.00;-1.00;-1.00;103068;1253;1004148;-80
2024/02/02 01:53:34;;;;;;;9.40;4.30;;;;;;;-128.00;-1.00;-1.00;103051;1253;1004512;-81
2024/02/02 01:56:00;;;;;;;19.30;5.80;;;;;;;-128.00;-1.00;-1.00;104519;1252;1004671;-80
2024/02/02 01:58:27;;;;;;;10.10;3.50;;;;;;;-128.00;-1.00;-1.00;105629;1253;1004303;-79
2024/02/02 02:00:54;;;;;;;20.00;5.00;;;;;;;-128.00;-1.00;-1.00;105627;1253;1004063;-79
2024/02/02 02:03:20;;;;;;;10.00;3.30;;;;;;;-128.00;-1.00;-1.00;103758;1253;1004861;-81
2024/02/02 02:05:47;;;;;;;14.10;3.50;;;;;;;-128.00;-1.00;-1.00;104268;1253;1005062;-81
2024/02/02 02:08:14;;;;;;;8.40;3.20;;;;;;;-128.00;-1.00;-1.00;105688;1252;1003807;-79
2024/02/02 02:10:40;;;;;;;15.20;4.00;;;;;;;-128.00;-1.00;-1.00;103615;1253;1003831;-79
2024/02/02 02:13:07;;;;;;;9.20;2.90;;;;;;;-128.00;-1.00;-1.00;103094;1253;1004586;-79
2024/02/02 02:15:34;;;;;;;16.50;4.50;;;;;;;-128.00;-1.00;-1.00;103055;1253;1004733;-78
2024/02/02 02:18:00;;;;;;;15.20;3.40;;;;;;;-128.00;-1.00;-1.00;103027;1253;1004679;-80
2024/02/02 02:20:27;;;;;;;10.00;3.40;;;;;;;-128.00;-1.00;-1.00;105248;1252;1004349;-79
2024/02/02 02:22:53;;;;;;;10.10;3.60;;;;;;;-128.00;-1.00;-1.00;103018;1253;1004115;-81
2024/02/02 02:25:20;;;;;;;12.80;3.30;;;;;;;-128.00;-1.00;-1.00;103060;1253;1004315;-81
2024/02/02 02:27:47;;;;;;;9.00;2.90;;;;;;;-128.00;-1.00;-1.00;103000;1253;1004553;-80
2024/02/02 02:30:14;;;;;;;10.50;2.70;;;;;;;-128.00;-1.00;-1.00;103084;1252;1005395;-79
2024/02/02 02:32:40;;;;;;;16.00;4.00;;;;;;;-128.00;-1.00;-1.00;103030;1253;1004035;-81
2024/02/02 02:35:08;;;;;;;11.10;4.60;;;;;;;-128.00;-1.00;-1.00;103043;1253;1004844;-79
2024/02/02 02:37:35;;;;;;;12.30;3.50;;;;;;;-128.00;-1.00;-1.00;103002;1253;1004519;-79
2024/02/02 02:40:01;;;;;;;8.50;3.30;;;;;;;-128.00;-1.00;-1.00;105250;1252;1004591;-80
2024/02/02 02:42:28;;;;;;;11.30;3.30;;;;;;;-128.00;-1.00;-1.00;105670;1252;1003530;-79
2024/02/02 02:44:54;;;;;;;11.70;3.50;;;;;;;-128.00;-1.00;-1.00;103473;1253;1003975;-81
2024/02/02 02:47:21;;;;;;;17.50;4.50;;;;;;;-128.00;-1.00;-1.00;103057;1253;1004302;-80
2024/02/02 02:49:47;;;;;;;17.70;3.80;;;;;;;-128.00;-1.00;-1.00;102897;1256;1005805;-80
2024/02/02 02:52:14;;;;;;;11.90;3.60;;;;;;;-128.00;-1.00;-1.00;103024;1252;1004337;-78
2024/02/02 02:54:40;;;;;;;11.90;5.30;;;;;;;-128.00;-1.00;-1.00;103031;1252;1004360;-79
2024/02/02 02:57:07;;;;;;;21.40;4.10;;;;;;;-128.00;-1.00;-1.00;103015;1253;1004586;-80
2024/02/02 02:59:33;;;;;;;11.50;3.50;;;;;;;-128.00;-1.00;-1.00;103018;1253;1005081;-78
2024/02/02 03:02:00;;;;;;;13.90;4.30;;;;;;;-128.00;-1.00;-1.00;102996;1256;1005231;-80
2024/02/02 03:04:26;;;;;;;9.70;3.50;;;;;;;-128.00;-1.00;-1.00;103033;1253;1004982;-79
2024/02/02 03:06:53;;;;;;;10.10;3.50;;;;;;;-128.00;-1.00;-1.00;105591;1252;1004353;-80
2024/02/02 03:09:20;;;;;;;15.40;4.60;;;;;;;-128.00;-1.00;-1.00;105701;1252;1004294;-79
2024/02/02 03:11:46;;;;;;;11.10;3.80;;;;;;;-128.00;-1.00;-1.00;105706;1252;1003260;-79
2024/02/02 03:14:13;;;;;;;10.50;3.80;;;;;;;-128.00;-1.00;-1.00;105645;1252;1005637;-79
2024/02/02 03:16:40;;;;;;;15.20;4.60;;;;;;;-128.00;-1.00;-1.00;105687;1253;1003672;-80
2024/02/02 03:19:07;;;;;;;9.10;3.60;;;;;;;-128.00;-1.00;-1.00;105688;1252;1004488;-79
2024/02/02 03:21:34;;;;;;;8.60;3.50;;;;;;;-128.00;-1.00;-1.00;105124;1252;1004016;-78
2024/02/02 03:24:01;;;;;;;10.60;3.10;;;;;;;-128.00;-1.00;-1.00;104182;1252;1005503;-79
2024/02/02 03:26:27;;;;;;;14.00;4.20;;;;;;;-128.00;-1.00;-1.00;105697;1252;1004829;-80
2024/02/02 03:28:54;;;;;;;9.80;3.80;;;;;;;-128.00;-1.00;-1.00;104896;1252;1003191;-80
2024/02/02 03:31:22;;;;;;;15.00;3.70;;;;;;;-128.00;-1.00;-1.00;105088;1253;1004506;-80
2024/02/02 03:33:49;;;;;;;12.40;5.10;;;;;;;-128.00;-1.00;-1.00;105698;1253;1004575;-80
2024/02/02 03:36:15;;;;;;;14.30;4.50;;;;;;;-128.00;-1.00;-1.00;105655;1252;1003751;-80
2024/02/02 03:38:42;;;;;;;15.40;5.00;;;;;;;-128.00;-1.00;-1.00;105699;1252;1003677;-81
2024/02/02 03:41:08;;;;;;;12.20;6.00;;;;;;;-128.00;-1.00;-1.00;103624;1253;1004923;-80
2024/02/02 03:43:35;;;;;;;26.40;9.70;;;;;;;-128.00;-1.00;-1.00;103023;1252;1004075;-79
2024/02/02 03:46:02;;;;;;;20.00;6.70;;;;;;;-128.00;-1.00;-1.00;104724;1252;1005530;-80
2024/02/02 03:48:28;;;;;;;25.30;12.00;;;;;;;-128.00;-1.00;-1.00;103098;1253;1004607;-79
2024/02/02 03:50:55;;;;;;;20.80;10.00;;;;;;;-128.00;-1.00;-1.00;103049;1253;1004715;-80
2024/02/02 03:53:21;;;;;;;45.30;17.30;;;;;;;-128.00;-1.00;-1.00;102923;1253;1005970;-81
2024/02/02 03:55:48;;;;;;;27.00;8.60;;;;;;;-128.00;-1.00;-1.00;103096;1252;1004536;-79
2024/02/02 03:58:14;;;;;;;16.30;7.70;;;;;;;-128.00;-1.00;-1.00;103011;1253;1004327;-79
2024/02/02 04:00:41;;;;;;;25.50;10.70;;;;;;;-128.00;-1.00;-1.00;103424;1253;1004679;-80
2024/02/02 04:03:08;;;;;;;10.80;3.90;;;;;;;-128.00;-1.00;-1.00;102943;1253;1004766;-80
2024/02/02 04:05:34;;;;;;;16.70;6.50;;;;;;;-128.00;-1.00;-1.00;102928;1254;1004516;-78
2024/02/02 04:08:01;;;;;;;36.60;12.50;;;;;;;-128.00;-1.00;-1.00;102975;1253;1003946;-79
2024/02/02 04:10:27;;;;;;;101.00;35.80;;;;;;;-128.00;-1.00;-1.00;105584;1253;1004377;-80
2024/02/02 04:12:54;;;;;;;18.90;6.80;;;;;;;-128.00;-1.00;-1.00;105057;1253;1004018;-79
2024/02/02 04:15:20;;;;;;;41.30;11.90;;;;;;;-128.00;-1.00;-1.00;103053;1253;1004100;-80
2024/02/02 04:17:47;;;;;;;9.40;4.60;;;;;;;-128.00;-1.00;-1.00;103081;1253;1004248;-79
2024/02/02 04:20:14;;;;;;;51.30;19.00;;;;;;;-128.00;-1.00;-1.00;103223;1253;1004497;-79
2024/02/02 04:22:40;;;;;;;40.70;15.10;;;;;;;-128.00;-1.00;-1.00;103043;1252;1004423;-82
2024/02/02 04:25:07;;;;;;;23.50;6.40;;;;;;;-128.00;-1.00;-1.00;103039;1252;1004747;-80
2024/02/02 04:27:34;;;;;;;57.70;23.20;;;;;;;-128.00;-1.00;-1.00;103009;1256;1003925;-80
2024/02/02 04:30:01;;;;;;;25.50;10.20;;;;;;;-128.00;-1.00;-1.00;103107;1253;1004735;-79
2024/02/02 04:32:27;;;;;;;60.60;19.60;;;;;;;-128.00;-1.00;-1.00;102935;1254;1004044;-80
2024/02/02 04:34:54;;;;;;;55.00;18.50;;;;;;;-128.00;-1.00;-1.00;103049;1252;1004974;-80
2024/02/02 04:37:20;;;;;;;32.30;11.10;;;;;;;-128.00;-1.00;-1.00;103093;1253;1006592;-79
2024/02/02 04:39:47;;;;;;;32.90;12.60;;;;;;;-128.00;-1.00;-1.00;103504;1253;1004957;-79
2024/02/02 04:42:13;;;;;;;17.30;4.90;;;;;;;-128.00;-1.00;-1.00;105660;1252;1003582;-80
2024/02/02 04:44:40;;;;;;;14.70;7.10;;;;;;;-128.00;-1.00;-1.00;105670;1252;1004622;-80
2024/02/02 04:47:07;;;;;;;75.10;29.30;;;;;;;-128.00;-1.00;-1.00;105699;1252;1004150;-79
2024/02/02 04:49:33;;;;;;;21.80;9.40;;;;;;;-128.00;-1.00;-1.00;103738;1253;1003985;-80
2024/02/02 04:52:00;;;;;;;20.30;6.70;;;;;;;-128.00;-1.00;-1.00;103073;1253;1005395;-79
2024/02/02 04:54:27;;;;;;;20.50;9.70;;;;;;;-128.00;-1.00;-1.00;103084;1253;1003715;-79
2024/02/02 04:56:53;;;;;;;14.80;6.00;;;;;;;-128.00;-1.00;-1.00;103688;1252;1005204;-79
2024/02/02 04:59:20;;;;;;;77.70;40.60;;;;;;;-128.00;-1.00;-1.00;103098;1253;1004993;-79
2024/02/02 05:01:46;;;;;;;27.80;12.30;;;;;;;-128.00;-1.00;-1.00;103423;1253;1004541;-79
2024/02/02 05:04:13;;;;;;;23.10;7.90;;;;;;;-128.00;-1.00;-1.00;103004;1253;1004559;-79
2024/02/02 05:06:40;;;;;;;13.50;6.50;;;;;;;-128.00;-1.00;-1.00;103026;1253;1004727;-78
2024/02/02 05:09:06;;;;;;;12.40;6.10;;;;;;;-128.00;-1.00;-1.00;103045;1253;1004563;-79
2024/02/02 05:11:33;;;;;;;12.50;6.60;;;;;;;-128.00;-1.00;-1.00;105371;1253;1005287;-79
2024/02/02 05:13:59;;;;;;;12.10;5.20;;;;;;;-128.00;-1.00;-1.00;105685;1252;1003950;-79
2024/02/02 05:16:26;;;;;;;26.30;9.50;;;;;;;-128.00;-1.00;-1.00;103404;1252;1003762;-80
2024/02/02 05:18:53;;;;;;;15.10;6.70;;;;;;;-128.00;-1.00;-1.00;103101;1253;1004458;-81
2024/02/02 05:21:19;;;;;;;35.00;16.40;;;;;;;-128.00;-1.00;-1.00;105160;1252;1003897;-80
2024/02/02 05:23:46;;;;;;;29.20;12.50;;;;;;;-128.00;-1.00;-1.00;103029;1253;1004028;-79
2024/02/02 05:26:12;;;;;;;29.60;10.10;;;;;;;-128.00;-1.00;-1.00;105160;1252;1004438;-80
2024/02/02 05:28:40;;;;;;;46.30;26.60;;;;;;;-128.00;-1.00;-1.00;105418;1252;1003986;-81
2024/02/02 05:31:06;;;;;;;32.00;14.40;;;;;;;-128.00;-1.00;-1.00;103098;1253;1004995;-81
2024/02/02 05:33:33;;;;;;;26.10;10.40;;;;;;;-128.00;-1.00;-1.00;103070;1253;1005427;-79
2024/02/02 05:36:01;;;;;;;19.80;7.40;;;;;;;-128.00;-1.00;-1.00;103082;1255;1005444;-81
2024/02/02 05:38:27;;;;;;;14.20;7.10;;;;;;;-128.00;-1.00;-1.00;103045;1253;1004687;-80
2024/02/02 05:40:54;;;;;;;14.30;6.70;;;;;;;-128.00;-1.00;-1.00;102941;1253;1004014;-81
2024/02/02 05:43:20;;;;;;;21.40;11.50;;;;;;;-128.00;-1.00;-1.00;103034;1253;1006429;-79
2024/02/02 05:45:47;;;;;;;22.40;8.40;;;;;;;-128.00;-1.00;-1.00;102821;1253;1004657;-80
2024/02/02 05:48:14;;;;;;;17.50;6.50;;;;;;;-128.00;-1.00;-1.00;103006;1253;1003758;-80
2024/02/02 05:50:40;;;;;;;17.80;7.90;;;;;;;-128.00;-1.00;-1.00;104626;1251;1005194;-79
2024/02/02 05:53:07;;;;;;;21.70;9.70;;;;;;;-128.00;-1.00;-1.00;103641;1253;1004042;-80
2024/02/02 05:55:34;;;;;;;24.90;10.20;;;;;;;-128.00;-1.00;-1.00;103015;1252;1005334;-80
2024/02/02 05:58:00;;;;;;;30.60;12.00;;;;;;;-128.00;-1.00;-1.00;103004;1252;1005239;-81
2024/02/02 06:00:27;;;;;;;20.90;8.50;;;;;;;-128.00;-1.00;-1.00;102986;1253;1003714;-80
2024/02/02 06:02:54;;;;;;;31.60;9.40;;;;;;;-128.00;-1.00;-1.00;103039;1253;1004416;-79
2024/02/02 06:05:20;;;;;;;21.00;8.60;;;;;;;-128.00;-1.00;-1.00;103067;1253;1004285;-78
2024/02/02 06:07:47;;;;;;;27.80;9.40;;;;;;;-128.00;-1.00;-1.00;103248;1253;1005034;-80
2024/02/02 06:10:13;;;;;;;21.40;10.20;;;;;;;-128.00;-1.00;-1.00;105645;1252;1004712;-79
2024/02/02 06:12:40;;;;;;;24.70;9.90;;;;;;;-128.00;-1.00;-1.00;105669;1252;1003717;-81
2024/02/02 06:15:07;;;;;;;22.00;11.30;;;;;;;-128.00;-1.00;-1.00;105666;1252;1004144;-79
2024/02/02 06:17:34;;;;;;;23.60;10.50;;;;;;;-128.00;-1.00;-1.00;105700;1252;1004039;-80
2024/02/02 06:20:01;;;;;;;17.80;8.70;;;;;;;-128.00;-1.00;-1.00;105090;1253;1005342;-78
2024/02/02 06:22:27;;;;;;;27.10;12.60;;;;;;;-128.00;-1.00;-1.00;103048;1253;1005478;-79
2024/02/02 06:24:54;;;;;;;25.00;12.80;;;;;;;-128.00;-1.00;-1.00;103035;1256;1004469;-78
2024/02/02 06:27:22;;;;;;;34.50;14.20;;;;;;;-128.00;-1.00;-1.00;103086;1253;1004484;-80
2024/02/02 06:29:50;;;;;;;28.70;11.10;;;;;;;-128.00;-1.00;-1.00;103325;1253;1004171;-79
2024/02/02 06:32:21;;;;;;;40.60;20.50;;;;;;;-128.00;-1.00;-1.00;103004;1255;1004920;-80
2024/02/02 06:34:51;;;;;;;31.80;13.20;;;;;;;-128.00;-1.00;-1.00;103150;1253;1050870;-80
2024/02/02 06:37:18;;;;;;;36.70;15.70;;;;;;;-128.00;-1.00;-1.00;103112;1253;1062241;-79
2024/02/02 06:39:47;;;;;;;30.60;14.20;;;;;;;-128.00;-1.00;-1.00;103107;1253;1004497;-79
2024/02/02 06:42:14;;;;;;;23.20;11.30;;;;;;;-128.00;-1.00;-1.00;102965;1253;1059296;-80
2024/02/02 06:44:41;;;;;;;22.70;9.40;;;;;;;-128.00;-1.00;-1.00;103247;1252;1004579;-81
2024/02/02 06:47:07;;;;;;;22.30;9.50;;;;;;;-128.00;-1.00;-1.00;103097;1253;1004517;-79
2024/02/02 06:49:34;;;;;;;30.20;15.70;;;;;;;-128.00;-1.00;-1.00;103468;1253;1005265;-80
2024/02/02 06:52:01;;;;;;;17.70;8.90;;;;;;;-128.00;-1.00;-1.00;105706;1253;1004300;-78
2024/02/02 06:54:28;;;;;;;19.30;9.40;;;;;;;-128.00;-1.00;-1.00;105653;1252;1003598;-79
2024/02/02 06:56:56;;;;;;;23.90;12.20;;;;;;;-128.00;-1.00;-1.00;105652;1253;1004594;-80
2024/02/02 06:59:23;;;;;;;18.60;9.30;;;;;;;-128.00;-1.00;-1.00;104832;1253;1004218;-79
2024/02/02 07:01:49;;;;;;;27.90;14.10;;;;;;;-128.00;-1.00;-1.00;103399;1253;1004010;-80
2024/02/02 07:04:16;;;;;;;33.20;19.00;;;;;;;-128.00;-1.00;-1.00;103119;1253;1004278;-78
2024/02/02 07:06:43;;;;;;;26.90;15.30;;;;;;;-128.00;-1.00;-1.00;103216;1253;1003848;-79
2024/02/02 07:09:19;;;;;;;39.90;15.20;;;;;;;-128.00;-1.00;-1.00;103117;1252;1004527;-78
2024/02/02 07:11:54;;;;;;;22.10;10.60;;;;;;;-128.00;-1.00;-1.00;105613;1253;1047283;-80
2024/02/02 07:14:45;;;;;;;20.20;9.30;;;;;;;-128.00;-1.00;-1.00;105639;1253;1062099;-81
2024/02/02 07:17:50;;;;;;;25.70;12.00;;;;;;;-128.00;-1.00;-1.00;104362;1253;1059004;-80
2024/02/02 07:20:22;;;;;;;18.50;9.50;;;;;;;-128.00;-1.00;-1.00;103809;1259;1061014;-80
2024/02/02 07:22:50;;;;;;;22.10;7.50;;;;;;;-128.00;-1.00;-1.00;105104;1261;1044891;-80
2024/02/02 07:25:21;;;;;;;14.00;6.90;;;;;;;-128.00;-1.00;-1.00;103891;1253;1004537;-79
2024/02/02 07:28:06;;;;;;;15.00;5.90;;;;;;;-128.00;-1.00;-1.00;103549;1252;1064294;-79
2024/02/02 07:30:42;;;;;;;21.50;8.00;;;;;;;-128.00;-1.00;-1.00;103387;1253;1059114;-78
2024/02/02 07:33:20;;;;;;;16.40;7.80;;;;;;;-128.00;-1.00;-1.00;103300;1256;1060556;-78
2024/02/02 07:35:47;;;;;;;25.80;13.10;;;;;;;-128.00;-1.00;-1.00;103450;1253;1047558;-81
2024/02/02 07:38:43;;;;;;;14.00;6.10;;;;;;;-128.00;-1.00;-1.00;103349;1253;1004615;-79
2024/02/02 07:41:11;;;;;;;24.70;10.80;;;;;;;-128.00;-1.00;-1.00;103282;1253;1060798;-80
2024/02/02 07:43:38;;;;;;;15.90;6.70;;;;;;;-128.00;-1.00;-1.00;105578;1253;1004418;-80
2024/02/02 07:46:05;;;;;;;20.60;10.50;;;;;;;-128.00;-1.00;-1.00;105560;1253;1003881;-78
2024/02/02 07:48:32;;;;;;;20.00;8.00;;;;;;;-128.00;-1.00;-1.00;105589;1253;1004302;-80
2024/02/02 07:50:59;;;;;;;20.20;9.00;;;;;;;-128.00;-1.00;-1.00;105657;1251;1004537;-79
2024/02/02 07:53:26;;;;;;;21.20;14.00;;;;;;;-128.00;-1.00;-1.00;105641;1253;1004033;-80
2024/02/02 07:55:53;;;;;;;16.80;9.90;;;;;;;-128.00;-1.00;-1.00;105652;1253;1004072;-80
2024/02/02 07:58:22;;;;;;;55.90;24.30;;;;;;;-128.00;-1.00;-1.00;105589;1252;1004615;-80
2024/02/02 08:00:49;;;;;;;83.20;40.50;;;;;;;-128.00;-1.00;-1.00;105578;1253;1045013;-79
2024/02/02 08:03:16;;;;;;;40.40;17.60;;;;;;;-128.00;-1.00;-1.00;105600;1252;1003631;-78
2024/02/02 08:05:42;;;;;;;70.80;27.60;;;;;;;-128.00;-1.00;-1.00;105609;1255;1005301;-80
2024/02/02 08:08:10;;;;;;;31.10;17.70;;;;;;;-128.00;-1.00;-1.00;105574;1253;1004615;-78
2024/02/02 08:10:44;;;;;;;32.80;14.70;;;;;;;-128.00;-1.00;-1.00;105550;1252;1003972;-81
2024/02/02 08:13:11;;;;;;;37.40;18.00;;;;;;;-128.00;-1.00;-1.00;105568;1253;1045392;-79
2024/02/02 08:15:38;;;;;;;71.30;48.50;;;;;;;-128.00;-1.00;-1.00;105669;1253;1003847;-79
2024/02/02 08:18:05;;;;;;;32.50;14.20;;;;;;;-128.00;-1.00;-1.00;105557;1253;1004023;-78
2024/02/02 08:20:33;;;;;;;15.50;7.50;;;;;;;-128.00;-1.00;-1.00;105638;1252;1004962;-78
2024/02/02 08:22:59;;;;;;;18.70;7.00;;;;;;;-128.00;-1.00;-1.00;105669;1252;1003869;-78
2024/02/02 08:25:26;;;;;;;19.30;7.10;;;;;;;-128.00;-1.00;-1.00;105629;1252;1004197;-78
2024/02/02 08:27:52;;;;;;;36.80;22.60;;;;;;;-128.00;-1.00;-1.00;105629;1253;1004686;-78
2024/02/02 08:30:19;;;;;;;25.30;12.20;;;;;;;-128.00;-1.00;-1.00;105654;1255;1004169;-78
2024/02/02 08:32:51;;;;;;;29.30;16.30;;;;;;;-128.00;-1.00;-1.00;105634;1253;1003874;-80
2024/02/02 08:35:21;;;;;;;17.80;7.90;;;;;;;-128.00;-1.00;-1.00;103622;1253;1061253;-80
2024/02/02 08:37:54;;;;;;;19.00;7.70;;;;;;;-128.00;-1.00;-1.00;103152;1253;1046628;-80
2024/02/02 08:40:26;;;;;;;25.00;16.10;;;;;;;-128.00;-1.00;-1.00;103603;1253;1046438;-81
2024/02/02 08:42:53;;;;;;;26.50;7.70;;;;;;;-128.00;-1.00;-1.00;105483;1252;1061673;-79
2024/02/02 08:45:37;;;;;;;15.00;5.80;;;;;;;-128.00;-1.00;-1.00;105597;1253;1004197;-81
2024/02/02 08:48:04;;;;;;;15.60;6.70;;;;;;;-128.00;-1.00;-1.00;104285;1253;1059805;-78
2024/02/02 08:50:31;;;;;;;16.70;7.30;;;;;;;-128.00;-1.00;-1.00;103336;1253;1004723;-80
2024/02/02 08:52:57;;;;;;;31.90;8.60;;;;;;;-128.00;-1.00;-1.00;103474;1252;1003963;-78
2024/02/02 08:55:44;;;;;;;21.80;8.10;;;;;;;-128.00;-1.00;-1.00;103257;1256;1004554;-81
2024/02/02 08:58:15;;;;;;;42.00;8.00;;;;;;;-128.00;-1.00;-1.00;103481;1253;1058886;-80
2024/02/02 09:00:41;;;;;;;22.40;10.70;;;;;;;-128.00;-1.00;-1.00;105615;1253;1059870;-79
2024/02/02 09:03:13;;;;;;;28.90;13.30;;;;;;;-128.00;-1.00;-1.00;105597;1252;1004586;-79
2024/02/02 09:05:57;;;;;;;39.30;16.90;;;;;;;-128.00;-1.00;-1.00;105566;1253;1047784;-79
2024/02/02 09:08:31;;;;;;;22.90;11.70;;;;;;;-128.00;-1.00;-1.00;105585;1253;1061821;-81
2024/02/02 09:10:58;;;;;;;24.50;9.30;;;;;;;-128.00;-1.00;-1.00;105619;1256;1057244;-80
2024/02/02 09:13:32;;;;;;;20.30;7.00;;;;;;;-128.00;-1.00;-1.00;105634;1253;1003965;-80
2024/02/02 09:15:58;;;;;;;29.90;11.40;;;;;;;-128.00;-1.00;-1.00;105499;1252;1045514;-80
2024/02/02 09:18:35;;;;;;;22.20;7.00;;;;;;;-128.00;-1.00;-1.00;105637;1251;1003449;-81
2024/02/02 09:21:02;;;;;;;26.70;11.70;;;;;;;-128.00;-1.00;-1.00;105574;1252;1061158;-81
2024/02/02 09:23:29;;;;;;;37.40;14.10;;;;;;;-128.00;-1.00;-1.00;105525;1253;1004731;-80
2024/02/02 09:25:55;;;;;;;64.20;23.00;;;;;;;-128.00;-1.00;-1.00;105635;1253;1004031;-80
2024/02/02 09:28:25;;;;;;;33.10;13.30;;;;;;;-128.00;-1.00;-1.00;105495;1253;1003853;-80
2024/02/02 09:31:01;;;;;;;21.60;7.90;;;;;;;-128.00;-1.00;-1.00;105637;1252;1047160;-80
2024/02/02 09:33:31;;;;;;;26.00;9.60;;;;;;;-128.00;-1.00;-1.00;105568;1253;1062629;-80
2024/02/02 09:36:03;;;;;;;39.90;12.30;;;;;;;-128.00;-1.00;-1.00;103777;1252;1057305;-79
2024/02/02 09:38:30;;;;;;;383.90;51.90;;;;;;;-128.00;-1.00;-1.00;103323;1253;1059562;-80
2024/02/02 09:41:15;;;;;;;48.40;18.00;;;;;;;-128.00;-1.00;-1.00;103304;1253;1004370;-78
2024/02/02 09:43:56;;;;;;;38.40;18.10;;;;;;;-128.00;-1.00;-1.00;103306;1255;1049152;-81
2024/02/02 09:46:45;;;;;;;29.20;10.80;;;;;;;-128.00;-1.00;-1.00;103382;1253;1061063;-80
2024/02/02 09:49:30;;;;;;;;;;;;;;;-128.00;-1.00;-1.00;103429;1253;1059862;-79
2024/02/02 09:52:12;;;;;;;27.10;7.80;;;;;;;-128.00;-1.00;-1.00;103379;1253;1060492;-81
2024/02/02 09:54:57;;;;;;;20.60;7.20;;;;;;;-128.00;-1.00;-1.00;103526;1253;1046779;-78
2024/02/02 09:57:32;;;;;;;17.30;7.00;;;;;;;-128.00;-1.00;-1.00;103471;1253;1048630;-81
2024/02/02 10:00:02;;;;;;;20.00;8.40;;;;;;;-128.00;-1.00;-1.00;103363;1253;1060766;-79
2024/02/02 10:02:41;;;;;;;24.40;11.60;;;;;;;-128.00;-1.00;-1.00;103262;1253;1058608;-81
2024/02/02 10:05:20;;;;;;;20.80;8.50;;;;;;;-128.00;-1.00;-1.00;103351;1253;1061009;-79
2024/02/02 10:08:08;;;;;;;21.30;8.10;;;;;;;-128.00;-1.00;-1.00;103396;1253;1046028;-81
2024/02/02 10:10:56;;;;;;;19.90;8.10;;;;;;;-128.00;-1.00;-1.00;103271;1253;1049334;-81
2024/02/02 10:13:38;;;;;;;20.90;8.00;;;;;;;-128.00;-1.00;-1.00;103404;1253;1062845;-80
2024/02/02 10:16:10;;;;;;;17.30;6.20;;;;;;;-128.00;-1.00;-1.00;103299;1253;1057932;-78
2024/02/02 10:18:48;;;;;;;16.10;5.80;;;;;;;-128.00;-1.00;-1.00;103328;1253;1059274;-80
2024/02/02 10:21:38;;;;;;;13.50;5.80;;;;;;;-128.00;-1.00;-1.00;103342;1253;1046839;-80
2024/02/02 10:24:27;;;;;;;32.70;7.10;;;;;;;-128.00;-1.00;-1.00;103129;1252;1047056;-78
2024/02/02 10:27:16;;;;;;;16.50;5.80;;;;;;;-128.00;-1.00;-1.00;103431;1253;1062436;-78
2024/02/02 10:30:05;;;;;;;39.40;12.40;;;;;;;-128.00;-1.00;-1.00;103271;1253;1059677;-80
2024/02/02 10:33:01;;;;;;;50.20;19.10;;;;;;;-128.00;-1.00;-1.00;103567;1253;1060075;-80
2024/02/02 10:36:12;;;;;;;29.90;8.80;;;;;;;-128.00;-1.00;-1.00;103244;1253;1045974;-78
2024/02/02 10:38:53;;;;;;;21.70;7.40;;;;;;;-128.00;-1.00;-1.00;102901;1259;1046923;-80
2024/02/02 10:41:54;;;;;;;25.70;9.80;;;;;;;-128.00;-1.00;-1.00;103246;1253;1062428;-80
2024/02/02 10:44:29;;;;;;;17.30;8.00;;;;;;;-128.00;-1.00;-1.00;103843;1252;1059099;-78
2024/02/02 10:47:53;;;;;;;17.20;7.40;;;;;;;-128.00;-1.00;-1.00;105635;1251;1059113;-80
2024/02/02 10:50:25;;;;;;;33.00;11.50;;;;;;;-128.00;-1.00;-1.00;102867;1260;1047531;-78
2024/02/02 10:53:18;;;;;;;27.60;8.00;;;;;;;-128.00;-1.00;-1.00;102721;1260;1047667;-78
2024/02/02 10:55:56;;;;;;;19.30;7.00;;;;;;;-128.00;-1.00;-1.00;105133;1253;1062763;-78
2024/02/02 10:59:06;;;;;;;21.50;7.00;;;;;;;-128.00;-1.00;-1.00;105578;1253;1057493;-80
2024/02/02 11:01:44;;;;;;;46.60;15.20;;;;;;;-128.00;-1.00;-1.00;103231;1253;1059972;-78
2024/02/02 11:04:32;;;;;;;20.20;6.40;;;;;;;-128.00;-1.00;-1.00;103243;1253;1048639;-79
2024/02/02 11:07:21;;;;;;;29.70;6.50;;;;;;;-128.00;-1.00;-1.00;103362;1253;1047161;-82
2024/02/02 11:09:59;;;;;;;20.50;4.80;;;;;;;-128.00;-1.00;-1.00;105306;1253;1063283;-80
2024/02/02 11:12:56;;;;;;;17.80;6.70;;;;;;;-128.00;-1.00;-1.00;103280;1253;1057221;-81
2024/02/02 11:16:09;;;;;;;28.30;9.90;;;;;;;-128.00;-1.00;-1.00;103321;1253;1058818;-78
2024/02/02 11:18:57;;;;;;;21.70;7.10;;;;;;;-128.00;-1.00;-1.00;103416;1256;1045902;-80
2024/02/02 11:21:38;;;;;;;19.20;6.70;;;;;;;-128.00;-1.00;-1.00;103317;1254;1049651;-80